Time;durP1;ratioP1;P1;durP2;ratioP2;P2;SDS_P1;SDS_P2;PMS_P1;PMS_P2;Temp;Humidity;BMP_temperature;BMP_pressure;BME280_temperature;BME280_humidity;BME280_pressure;Samples;Min_cycle;Max_cycle;Signal;HPM_P1;HPM_P2
2024/01/15 00:00:56;;;;;;;5.50;4.80;;;;;;;2.72;100.00;98286.56;178617;1270;60174;-62
2024/01/15 00:05:19;;;;;;;6.50;3.90;;;;;;;2.76;100.00;98277.52;178869;1269;45910;-62
2024/01/15 00:09:23;;;;;;;7.30;5.20;;;;;;;2.76;100.00;98272.96;178956;1270;45957;-64
2024/01/15 00:13:28;;;;;;;9.00;4.90;;;;;;;2.80;100.00;98265.30;178700;1270;46120;-63
2024/01/15 00:17:50;;;;;;;14.50;8.40;;;;;;;2.89;100.00;98255.30;178757;1270;45945;-61
2024/01/15 00:21:53;;;;;;;9.70;6.30;;;;;;;2.95;100.00;98243.38;178725;1270;58436;-62
2024/01/15 00:25:57;;;;;;;8.00;5.90;;;;;;;3.06;100.00;98237.64;178645;1269;46095;-62
2024/01/15 00:30:00;;;;;;;15.00;7.50;;;;;;;3.14;99.86;98229.90;179036;1270;45902;-61
2024/01/15 00:34:04;;;;;;;10.00;6.60;;;;;;;3.23;99.57;98223.42;178906;1272;45906;-62
2024/01/15 00:38:13;;;;;;;10.50;6.90;;;;;;;3.26;98.33;98215.80;178921;1270;43645;-61
2024/01/15 00:42:17;;;;;;;6.50;4.80;;;;;;;3.24;96.90;98205.79;178613;1270;58568;-62
2024/01/15 00:46:20;;;;;;;6.10;4.00;;;;;;;3.27;97.19;98212.35;178819;1270;43668;-61
2024/01/15 00:50:23;;;;;;;8.20;5.30;;;;;;;3.26;96.48;98205.30;178483;1270;46144;-61
2024/01/15 00:54:31;;;;;;;6.20;4.30;;;;;;;3.22;95.91;98198.95;178854;1272;44789;-62
2024/01/15 00:58:35;;;;;;;9.20;5.40;;;;;;;3.21;93.83;98194.84;178807;1268;45966;-62
2024/01/15 01:02:38;;;;;;;11.10;6.40;;;;;;;3.24;93.48;98192.13;178967;1270;58116;-62
2024/01/15 01:06:42;;;;;;;9.40;6.90;;;;;;;3.28;92.63;98192.50;178550;1270;43707;-62
2024/01/15 01:10:45;;;;;;;10.30;5.60;;;;;;;3.29;92.64;98182.08;179011;1269;43700;-62
2024/01/15 01:14:49;;;;;;;10.50;7.90;;;;;;;3.28;92.77;98178.25;178609;1270;45135;-62
2024/01/15 01:18:53;;;;;;;11.20;7.70;;;;;;;3.29;93.68;98183.64;178898;1270;45124;-62
2024/01/15 01:22:57;;;;;;;10.80;7.00;;;;;;;3.24;96.99;98176.54;178893;1270;58658;-63
2024/01/15 01:27:02;;;;;;;11.10;7.80;;;;;;;3.18;98.89;98171.63;178755;1269;43969;-63
2024/01/15 01:31:05;;;;;;;10.90;7.40;;;;;;;3.11;99.78;98172.02;178564;1270;43967;-62
2024/01/15 01:35:08;;;;;;;9.60;6.00;;;;;;;2.97;100.00;98174.92;178743;1269;43964;-62
2024/01/15 01:39:12;;;;;;;11.70;6.30;;;;;;;2.69;100.00;98171.45;178854;1270;45903;-63
2024/01/15 01:43:15;;;;;;;10.60;7.10;;;;;;;2.62;100.00;98171.70;178806;1270;59983;-61
2024/01/15 01:47:18;;;;;;;10.70;7.20;;;;;;;2.55;100.00;98164.89;178651;1270;45986;-62
2024/01/15 01:51:24;;;;;;;11.00;5.80;;;;;;;2.52;100.00;98159.91;178682;1270;46066;-63
2024/01/15 01:55:33;;;;;;;7.70;5.20;;;;;;;2.50;100.00;98165.17;178531;1269;44900;-63
2024/01/15 01:59:38;;;;;;;8.10;6.20;;;;;;;2.52;100.00;98156.61;178367;1269;45891;-63
2024/01/15 02:03:43;;;;;;;9.80;6.80;;;;;;;2.48;100.00;98152.92;178491;1270;58059;-62
2024/01/15 02:07:47;;;;;;;10.50;7.10;;;;;;;2.53;100.00;98143.95;178812;1269;46059;-61
2024/01/15 02:11:52;;;;;;;9.50;5.10;;;;;;;2.53;100.00;98147.59;178669;1270;46076;-62
2024/01/15 02:15:56;;;;;;;6.70;5.40;;;;;;;2.48;100.00;98140.15;178758;1269;45926;-61
2024/01/15 02:20:02;;;;;;;7.20;5.10;;;;;;;2.44;100.00;98137.86;178856;1270;45175;-62
2024/01/15 02:24:06;;;;;;;12.80;5.50;;;;;;;2.34;100.00;98131.65;178865;1270;58510;-63
2024/01/15 02:28:14;;;;;;;6.60;5.60;;;;;;;2.32;100.00;98126.03;178871;1270;43907;-62
2024/01/15 02:32:17;;;;;;;7.30;4.90;;;;;;;2.27;100.00;98114.18;178853;1272;43546;-62
2024/01/15 02:36:23;;;;;;;7.20;5.30;;;;;;;2.28;100.00;98106.09;178772;1269;45614;-62
2024/01/15 02:40:26;;;;;;;7.30;5.20;;;;;;;2.26;100.00;98092.58;178420;1270;43785;-62
2024/01/15 02:44:29;;;;;;;6.70;4.40;;;;;;;2.28;100.00;98090.19;178869;1270;58982;-63
2024/01/15 02:48:34;;;;;;;6.10;5.30;;;;;;;2.32;100.00;98092.96;178479;1270;44766;-62
2024/01/15 02:52:39;;;;;;;7.30;4.80;;;;;;;2.33;100.00;98092.73;178519;1269;46053;-63
2024/01/15 02:56:51;;;;;;;6.50;5.60;;;;;;;2.37;100.00;98084.71;178629;1270;43645;-61
2024/01/15 03:00:54;;;;;;;8.50;7.50;;;;;;;2.38;100.00;98083.20;178721;1270;44489;-62
2024/01/15 03:04:57;;;;;;;9.20;6.10;;;;;;;2.42;100.00;98083.73;178625;1270;58560;-61
2024/01/15 03:09:03;;;;;;;9.50;5.70;;;;;;;2.47;100.00;98084.98;178629;1270;45068;-63
2024/01/15 03:13:06;;;;;;;11.70;6.70;;;;;;;2.45;100.00;98085.41;178677;1269;46007;-62
2024/01/15 03:17:11;;;;;;;11.00;7.20;;;;;;;2.52;100.00;98079.29;178997;1270;45049;-62
2024/01/15 03:21:16;;;;;;;12.40;7.20;;;;;;;2.51;100.00;98072.73;178910;1270;45893;-62
2024/01/15 03:25:24;;;;;;;8.80;5.90;;;;;;;2.47;100.00;98068.14;178447;1272;58547;-63
2024/01/15 03:29:28;;;;;;;11.80;7.00;;;;;;;2.45;100.00;98058.89;178891;1269;43820;-61
2024/01/15 03:33:31;;;;;;;9.10;5.00;;;;;;;2.41;100.00;98055.34;178808;1270;45996;-62
2024/01/15 03:37:35;;;;;;;9.80;6.10;;;;;;;2.43;100.00;98053.73;178843;1270;43811;-62
2024/01/15 03:41:40;;;;;;;6.50;5.70;;;;;;;2.43;99.97;98051.65;178910;1270;44487;-62
2024/01/15 03:45:44;;;;;;;8.00;5.60;;;;;;;2.40;100.00;98045.11;178857;1270;58462;-62
2024/01/15 03:49:47;;;;;;;8.20;5.80;;;;;;;2.33;100.00;98037.83;178959;1269;44948;-63
2024/01/15 03:54:21;;;;;;;11.50;6.40;;;;;;;2.18;100.00;98041.49;178638;1269;44969;-61
2024/01/15 03:58:25;;;;;;;11.30;5.60;;;;;;;2.08;100.00;98041.77;178535;1269;45916;-61
2024/01/15 04:02:29;;;;;;;6.10;4.80;;;;;;;2.05;100.00;98037.35;178789;1269;44915;-62
2024/01/15 04:06:32;;;;;;;9.50;5.60;;;;;;;2.00;100.00;98029.35;178740;1269;58917;-62
2024/01/15 04:10:39;;;;;;;8.10;6.00;;;;;;;2.01;100.00;98027.63;178708;1269;46127;-63
2024/01/15 04:14:43;;;;;;;10.20;6.70;;;;;;;2.02;100.00;98025.31;178885;1270;43603;-62
2024/01/15 04:18:55;;;;;;;9.50;5.90;;;;;;;2.05;100.00;98020.89;178892;1269;46097;-61
2024/01/15 04:22:59;;;;;;;8.90;5.50;;;;;;;2.01;100.00;98008.11;178890;1268;44981;-61
2024/01/15 04:27:03;;;;;;;11.90;6.00;;;;;;;1.96;100.00;98007.80;178632;1270;59455;-62
2024/01/15 04:31:07;;;;;;;12.00;7.40;;;;;;;1.98;100.00;97999.09;178985;1270;45931;-61
2024/01/15 04:35:12;;;;;;;9.20;5.20;;;;;;;2.02;100.00;97985.95;178590;1269;43786;-62
2024/01/15 04:39:18;;;;;;;8.80;5.10;;;;;;;2.05;100.00;97990.63;179115;1270;43689;-62
2024/01/15 04:43:22;;;;;;;9.40;6.30;;;;;;;2.10;100.00;97990.16;178786;1269;46149;-63
2024/01/15 04:47:25;;;;;;;9.80;6.80;;;;;;;2.11;100.00;97991.27;179098;1268;58570;-63
2024/01/15 04:51:28;;;;;;;13.30;8.10;;;;;;;1.99;100.00;97987.64;179063;1269;46018;-61
2024/01/15 04:55:32;;;;;;;15.10;6.60;;;;;;;1.79;100.00;97995.73;178924;1270;46132;-61
2024/01/15 04:59:35;;;;;;;13.80;7.90;;;;;;;1.59;100.00;97996.09;179043;1270;43926;-61
2024/01/15 05:03:39;;;;;;;9.80;6.50;;;;;;;1.49;100.00;97996.20;178892;1270;46015;-61
2024/01/15 05:07:43;;;;;;;8.10;6.20;;;;;;;1.41;100.00;97994.40;179003;1270;58700;-62
2024/01/15 05:11:47;;;;;;;12.60;7.00;;;;;;;1.36;100.00;97999.88;178944;1269;45907;-62
2024/01/15 05:15:50;;;;;;;10.20;6.40;;;;;;;1.29;100.00;98003.23;178788;1272;275113;-61
2024/01/15 05:19:54;;;;;;;11.30;7.50;;;;;;;1.30;100.00;98009.77;178627;1269;43616;-61
2024/01/15 05:24:09;;;;;;;14.40;8.00;;;;;;;1.33;100.00;98004.98;179111;1268;43629;-61
2024/01/15 05:28:37;;;;;;;14.50;7.30;;;;;;;1.34;100.00;98001.78;178936;1270;57320;-62
2024/01/15 05:32:43;;;;;;;14.10;6.50;;;;;;;1.41;100.00;97998.94;179232;1269;43575;-61
2024/01/15 05:36:47;;;;;;;12.60;8.10;;;;;;;1.47;100.00;97994.94;179270;1269;43702;-63
2024/01/15 05:40:59;;;;;;;9.40;5.80;;;;;;;1.52;100.00;97995.81;179085;1270;44450;-61
2024/01/15 05:45:05;;;;;;;9.00;5.50;;;;;;;1.54;100.00;97992.16;178790;1270;44801;-62
2024/01/15 05:49:09;;;;;;;13.20;8.00;;;;;;;1.56;100.00;97983.40;178952;1269;58812;-61
2024/01/15 05:53:13;;;;;;;15.30;8.00;;;;;;;1.52;100.00;97982.15;178738;1269;45817;-61
2024/01/15 05:57:17;;;;;;;16.30;8.50;;;;;;;1.61;100.00;97985.48;178690;1270;44367;-60
2024/01/15 06:01:20;;;;;;;19.50;7.10;;;;;;;1.60;100.00;98000.56;178732;1269;43496;-60
2024/01/15 06:05:24;;;;;;;10.40;6.20;;;;;;;1.62;100.00;98002.89;178834;1269;45898;-61
2024/01/15 06:09:28;;;;;;;10.30;5.80;;;;;;;1.58;100.00;97992.70;178818;1270;59867;-62
2024/01/15 06:13:31;;;;;;;6.30;4.90;;;;;;;1.53;100.00;98000.81;178676;1270;44946;-61
2024/01/15 06:17:35;;;;;;;9.60;6.70;;;;;;;1.47;100.00;97995.85;178955;1269;45944;-62
2024/01/15 06:21:38;;;;;;;8.70;6.80;;;;;;;1.45;100.00;97999.70;178552;1269;44008;-61
2024/01/15 06:25:42;;;;;;;9.30;6.50;;;;;;;1.43;100.00;97997.88;178690;1269;46019;-59
2024/01/15 06:29:49;;;;;;;15.00;7.80;;;;;;;1.44;100.00;98008.67;178852;1270;59027;-59
2024/01/15 06:33:55;;;;;;;13.60;8.20;;;;;;;1.45;100.00;98011.24;178873;1269;44691;-61
2024/01/15 06:37:59;;;;;;;15.80;6.20;;;;;;;1.42;100.00;98011.94;178629;1269;44998;-60
2024/01/15 06:42:29;;;;;;;15.30;9.10;;;;;;;1.44;100.00;98018.77;178606;1268;46018;-61
2024/01/15 06:46:32;;;;;;;12.00;8.20;;;;;;;1.43;100.00;98012.77;179121;1270;44721;-62
2024/01/15 06:50:39;;;;;;;12.40;7.60;;;;;;;1.50;100.00;98018.95;179033;1269;58548;-61
2024/01/15 06:54:42;;;;;;;16.00;8.80;;;;;;;1.51;100.00;98020.84;178771;1268;45925;-62
2024/01/15 06:58:45;;;;;;;12.10;7.20;;;;;;;1.51;100.00;98027.11;178520;1269;43554;-61
2024/01/15 07:02:53;;;;;;;9.90;7.60;;;;;;;1.55;100.00;98027.19;178884;1269;46020;-62
2024/01/15 07:06:57;;;;;;;10.50;6.70;;;;;;;1.56;100.00;98023.39;178730;1270;43522;-61
2024/01/15 07:11:14;;;;;;;12.50;7.60;;;;;;;1.58;100.00;98027.77;178980;1269;58656;-61
2024/01/15 07:15:19;;;;;;;11.00;6.80;;;;;;;1.60;100.00;98028.16;178944;1268;46018;-61
2024/01/15 07:19:25;;;;;;;12.70;7.60;;;;;;;1.63;99.86;98013.26;179003;1269;45957;-61
2024/01/15 07:23:28;;;;;;;11.00;8.90;;;;;;;1.73;99.06;98031.31;178905;1270;43665;-61
2024/01/15 07:27:39;;;;;;;9.80;6.50;;;;;;;1.81;98.53;98031.02;179209;1269;43782;-61
2024/01/15 07:31:59;;;;;;;11.00;5.40;;;;;;;1.84;96.20;98013.14;179060;1269;58505;-63
2024/01/15 07:36:03;;;;;;;10.90;5.90;;;;;;;1.90;93.25;98022.10;178942;1268;43581;-61
2024/01/15 07:40:08;;;;;;;12.20;7.30;;;;;;;1.96;92.86;98025.92;178827;1269;45982;-61
2024/01/15 07:44:19;;;;;;;11.10;6.60;;;;;;;1.97;91.39;98023.25;178921;1270;44841;-61
2024/01/15 07:48:23;;;;;;;10.40;4.50;;;;;;;1.99;90.90;98020.83;178887;1270;45897;-61
2024/01/15 07:52:27;;;;;;;12.20;5.70;;;;;;;1.99;89.34;98010.36;178643;1270;58525;-61
2024/01/15 07:56:30;;;;;;;6.60;4.70;;;;;;;2.01;88.49;98009.31;178816;1268;44234;-61
2024/01/15 08:00:34;;;;;;;11.00;6.30;;;;;;;2.05;88.41;98005.67;179179;1269;45973;-62
2024/01/15 08:04:40;;;;;;;6.10;4.70;;;;;;;2.03;88.32;98015.58;179201;1263;94673;-81
2024/01/15 08:08:43;;;;;;;7.80;5.00;;;;;;;1.97;88.13;98013.44;177837;1263;45928;-81
2024/01/15 08:12:46;;;;;;;12.20;6.00;;;;;;;2.01;89.19;98020.70;177065;1265;57943;-80
2024/01/15 08:16:50;;;;;;;13.40;6.10;;;;;;;2.05;89.30;98017.91;177560;1263;46102;-82
2024/01/15 08:20:53;;;;;;;8.40;5.70;;;;;;;2.05;89.42;98025.44;176221;1263;46035;-81
2024/01/15 08:24:57;;;;;;;11.40;6.50;;;;;;;1.97;92.07;98036.17;176451;1263;46149;-80
2024/01/15 08:29:00;;;;;;;5.80;5.30;;;;;;;1.89;94.25;98028.30;177355;1263;46133;-80
2024/01/15 08:33:04;;;;;;;13.60;5.10;;;;;;;1.87;94.19;98031.61;179808;1263;59544;-80
2024/01/15 08:37:20;;;;;;;7.30;5.50;;;;;;;1.90;93.34;98032.38;179844;1263;46044;-80
2024/01/15 08:41:24;;;;;;;11.40;6.90;;;;;;;1.96;92.05;98023.33;180463;1263;44068;-80
2024/01/15 08:45:27;;;;;;;10.00;5.70;;;;;;;2.03;90.27;98022.23;176950;1265;46252;-80
2024/01/15 08:49:33;;;;;;;11.60;5.00;;;;;;;2.08;88.32;98017.98;177284;1267;46026;-80
2024/01/15 08:53:37;;;;;;;10.20;5.70;;;;;;;2.12;88.40;98038.10;177273;1263;58311;-80
2024/01/15 08:57:40;;;;;;;12.50;5.10;;;;;;;2.14;89.21;98044.45;176792;1263;46019;-80
2024/01/15 09:01:43;;;;;;;7.80;4.80;;;;;;;2.15;88.45;98039.59;176397;1264;46075;-80
2024/01/15 09:05:48;;;;;;;11.10;5.40;;;;;;;2.21;88.08;98041.95;176586;1267;46149;-79
2024/01/15 09:09:51;;;;;;;9.00;5.10;;;;;;;2.16;88.32;98035.89;176667;1264;46015;-80
2024/01/15 09:13:54;;;;;;;8.10;4.80;;;;;;;2.18;89.10;98037.15;175760;1264;58673;-80
2024/01/15 09:17:58;;;;;;;12.30;5.00;;;;;;;2.18;88.44;98029.79;179595;1263;45886;-80
2024/01/15 09:22:02;;;;;;;6.90;4.90;;;;;;;2.20;87.36;98029.46;178607;1264;46111;-80
2024/01/15 09:26:08;;;;;;;10.40;5.90;;;;;;;2.20;87.55;98035.02;178136;1264;44286;-80
2024/01/15 09:30:12;;;;;;;10.60;4.30;;;;;;;2.29;88.04;98033.55;177215;1264;46286;-80
2024/01/15 09:34:15;;;;;;;8.40;6.00;;;;;;;2.33;87.44;98028.02;178379;1264;59700;-80
2024/01/15 09:38:20;;;;;;;16.20;7.60;;;;;;;2.34;86.58;98027.20;177896;1264;46166;-81
2024/01/15 09:42:28;;;;;;;6.70;6.00;;;;;;;2.35;86.44;98017.87;175926;1267;46005;-80
2024/01/15 09:46:32;;;;;;;10.70;7.30;;;;;;;2.38;86.28;98031.61;177885;1264;46122;-80
2024/01/15 09:50:36;;;;;;;11.40;6.10;;;;;;;2.33;86.91;98025.54;177649;1264;46098;-80
2024/01/15 09:54:40;;;;;;;14.20;6.30;;;;;;;2.25;86.54;98007.30;178220;1263;59486;-80
2024/01/15 09:58:45;;;;;;;10.50;6.30;;;;;;;2.16;87.53;98012.80;178126;1263;46129;-80
2024/01/15 10:02:48;;;;;;;8.80;6.40;;;;;;;2.14;88.50;98007.85;177497;1264;46191;-81
2024/01/15 10:06:52;;;;;;;7.30;5.60;;;;;;;2.10;88.62;98012.41;176264;1263;46019;-81
2024/01/15 10:10:55;;;;;;;9.40;5.40;;;;;;;2.12;88.78;98010.86;178856;1264;45975;-81
2024/01/15 10:14:58;;;;;;;7.00;5.20;;;;;;;2.12;88.23;97996.34;176387;1263;59576;-80
2024/01/15 10:19:02;;;;;;;7.50;6.40;;;;;;;2.15;88.39;98002.77;176795;1263;45289;-80
2024/01/15 10:23:05;;;;;;;12.00;7.00;;;;;;;2.21;87.74;97999.48;178730;1263;45913;-81
2024/01/15 10:27:09;;;;;;;10.40;5.50;;;;;;;2.30;87.07;97990.14;179603;1263;45992;-81
2024/01/15 10:31:13;;;;;;;12.10;5.80;;;;;;;2.39;85.97;97989.17;176434;1263;46019;-80
2024/01/15 10:35:16;;;;;;;13.30;7.10;;;;;;;2.47;85.92;97981.75;177672;1264;56957;-81
2024/01/15 10:39:19;;;;;;;17.30;8.00;;;;;;;2.53;85.51;97988.33;178121;1264;46117;-80
2024/01/15 10:43:23;;;;;;;10.50;4.60;;;;;;;2.57;85.95;97986.14;177216;1263;46025;-80
2024/01/15 10:47:31;;;;;;;8.50;4.40;;;;;;;2.60;85.69;97961.70;177511;1263;46106;-81
2024/01/15 10:51:34;;;;;;;10.50;5.60;;;;;;;2.60;84.69;97956.48;176601;1264;45849;-80
2024/01/15 10:55:39;;;;;;;11.10;7.50;;;;;;;2.62;85.02;97958.22;177916;1264;59551;-80
2024/01/15 10:59:42;;;;;;;15.30;7.60;;;;;;;2.65;84.34;97970.69;177590;1264;46033;-80
2024/01/15 11:03:46;;;;;;;8.70;5.80;;;;;;;2.68;84.81;97965.70;176359;1265;46183;-80
2024/01/15 11:07:50;;;;;;;7.50;4.60;;;;;;;2.64;84.48;97960.67;177059;1263;46107;-79
2024/01/15 11:12:09;;;;;;;17.00;6.30;;;;;;;2.66;84.90;97969.05;178318;1263;46153;-80
2024/01/15 11:16:13;;;;;;;8.40;5.30;;;;;;;2.63;86.19;97960.88;179569;1264;58048;-80
2024/01/15 11:20:16;;;;;;;10.60;5.50;;;;;;;2.62;87.34;97973.73;176125;1264;46142;-80
2024/01/15 11:24:35;;;;;;;8.30;5.80;;;;;;;2.59;86.64;97970.17;176914;1263;46472;-80
2024/01/15 11:28:48;;;;;;;8.00;4.00;;;;;;;2.63;86.10;97988.26;178017;1263;46266;-80
2024/01/15 11:32:51;;;;;;;6.50;4.10;;;;;;;2.67;85.94;97974.73;177388;1267;46164;-80
2024/01/15 11:36:54;;;;;;;15.20;5.30;;;;;;;2.67;86.43;97986.26;178018;1264;58029;-80
2024/01/15 11:40:59;;;;;;;14.80;5.70;;;;;;;2.61;86.02;97969.49;177727;1264;45995;-80
2024/01/15 11:45:03;;;;;;;9.70;6.00;;;;;;;2.54;85.65;97962.89;178166;1264;44026;-80
2024/01/15 11:49:11;;;;;;;9.30;5.70;;;;;;;2.56;85.77;97973.41;177608;1263;46197;-80
2024/01/15 11:53:40;;;;;;;9.00;5.90;;;;;;;2.64;84.64;97977.95;176319;1267;46200;-80
2024/01/15 11:57:50;;;;;;;9.30;4.30;;;;;;;2.74;85.13;97977.89;177637;1267;59329;-80
2024/01/15 12:01:53;;;;;;;6.90;4.40;;;;;;;2.68;85.09;97973.77;177092;1263;45941;-80
2024/01/15 12:05:58;;;;;;;13.80;5.90;;;;;;;2.72;85.02;97968.55;176459;1265;46085;-80
2024/01/15 12:10:02;;;;;;;9.10;3.90;;;;;;;2.63;84.49;97975.74;176864;1264;46244;-80
2024/01/15 12:14:05;;;;;;;8.50;4.70;;;;;;;2.58;84.42;97972.33;177178;1265;46044;-80
2024/01/15 12:18:11;;;;;;;11.20;5.40;;;;;;;2.58;84.38;97972.90;177780;1264;60399;-81
2024/01/15 12:22:15;;;;;;;17.50;6.10;;;;;;;2.51;84.84;97959.46;178787;1265;46062;-80
2024/01/15 12:26:18;;;;;;;7.80;6.40;;;;;;;2.45;83.74;97959.66;177063;1267;46023;-80
2024/01/15 12:30:21;;;;;;;8.60;6.10;;;;;;;2.50;85.32;97968.84;177428;1264;46059;-80
2024/01/15 12:34:29;;;;;;;9.50;5.90;;;;;;;2.53;85.75;97961.03;176622;1264;46030;-80
2024/01/15 12:38:32;;;;;;;8.30;5.50;;;;;;;2.51;84.92;97972.46;177866;1264;58192;-80
2024/01/15 12:42:36;;;;;;;7.90;5.70;;;;;;;2.45;85.58;97986.25;177343;1264;46121;-80
2024/01/15 12:46:39;;;;;;;10.80;5.80;;;;;;;2.39;85.65;97966.80;176396;1265;46140;-80
2024/01/15 12:50:43;;;;;;;8.40;4.20;;;;;;;2.28;86.93;97964.21;177533;1264;46313;-80
2024/01/15 12:54:51;;;;;;;9.50;6.00;;;;;;;2.21;88.36;97959.73;177498;1265;46008;-80
2024/01/15 12:58:54;;;;;;;9.10;6.00;;;;;;;2.24;88.83;97961.05;178013;1263;59822;-80
2024/01/15 13:02:57;;;;;;;9.70;6.10;;;;;;;2.31;88.48;97960.63;179161;1264;44358;-80
2024/01/15 13:07:00;;;;;;;9.90;6.20;;;;;;;2.35;88.10;97964.85;177094;1264;46046;-80
2024/01/15 13:11:05;;;;;;;12.00;5.30;;;;;;;2.39;87.36;97957.39;176037;1264;46474;-79
2024/01/15 13:15:11;;;;;;;9.80;5.80;;;;;;;2.45;86.64;97952.82;176744;1264;46164;-80
2024/01/15 13:19:17;;;;;;;8.10;5.50;;;;;;;2.53;86.48;97951.64;177547;1263;59532;-80
2024/01/15 13:23:20;;;;;;;10.90;6.90;;;;;;;2.55;85.68;97953.16;176021;1263;46013;-80
2024/01/15 13:27:24;;;;;;;14.90;5.70;;;;;;;2.64;84.36;97953.77;178936;1263;46015;-80
2024/01/15 13:31:30;;;;;;;9.00;5.90;;;;;;;2.70;83.98;97957.14;179066;1263;46116;-80
2024/01/15 13:35:35;;;;;;;;;;;;;;;2.71;84.04;97950.56;179510;1267;46047;-80
2024/01/15 13:39:39;;;;;;;14.10;5.90;;;;;;;2.64;84.27;97954.34;178385;1264;58566;-80
2024/01/15 13:43:42;;;;;;;9.10;5.30;;;;;;;2.68;83.56;97947.49;176998;1264;46011;-80
2024/01/15 13:47:45;;;;;;;11.60;6.70;;;;;;;2.64;84.27;97954.34;177179;1263;44321;-80
2024/01/15 13:51:48;;;;;;;17.80;5.80;;;;;;;2.64;84.49;97953.14;177180;1263;46013;-83
2024/01/15 13:55:51;;;;;;;8.80;5.30;;;;;;;2.80;83.83;97962.61;177475;1267;46007;-83
2024/01/15 13:59:55;;;;;;;11.40;6.20;;;;;;;2.92;82.99;97965.61;178078;1263;59375;-83
2024/01/15 14:03:58;;;;;;;9.60;6.60;;;;;;;3.03;83.28;97973.10;177883;1263;46096;-82
2024/01/15 14:08:03;;;;;;;8.70;4.70;;;;;;;3.06;82.45;97979.14;177989;1263;46156;-82
2024/01/15 14:12:06;;;;;;;7.80;4.00;;;;;;;3.08;81.92;97973.36;177793;1264;46122;-82
2024/01/15 14:16:10;;;;;;;11.00;5.90;;;;;;;3.11;82.44;97976.24;177642;1264;46015;-83
2024/01/15 14:20:14;;;;;;;6.90;5.00;;;;;;;3.10;82.56;97981.52;178296;1264;58227;-82
2024/01/15 14:24:18;;;;;;;8.90;5.30;;;;;;;3.08;82.98;97978.77;178428;1264;46082;-82
2024/01/15 14:28:23;;;;;;;10.50;4.20;;;;;;;3.03;82.45;97978.50;177538;1265;45589;-83
2024/01/15 14:32:27;;;;;;;10.30;4.80;;;;;;;2.99;81.90;97983.05;176950;1265;46012;-82
2024/01/15 14:36:30;;;;;;;6.80;4.40;;;;;;;2.92;82.73;97983.84;177845;1267;46057;-83
2024/01/15 14:40:35;;;;;;;6.80;3.30;;;;;;;2.82;82.81;97983.80;177489;1264;58370;-83
2024/01/15 14:44:40;;;;;;;13.40;4.80;;;;;;;2.84;82.47;97977.52;177740;1263;46037;-82
2024/01/15 14:48:48;;;;;;;6.00;3.80;;;;;;;2.90;83.35;97993.60;179795;1265;44173;-83
2024/01/15 14:52:52;;;;;;;7.30;3.60;;;;;;;2.90;83.57;97991.36;179083;1264;46016;-82
2024/01/15 14:56:56;;;;;;;9.30;3.30;;;;;;;2.90;83.79;97988.18;178994;1264;44103;-82
2024/01/15 15:01:00;;;;;;;4.90;3.60;;;;;;;2.87;84.26;97990.23;178626;1265;58017;-81
2024/01/15 15:05:04;;;;;;;3.80;3.50;;;;;;;2.81;84.69;98002.28;178001;1266;46557;-81
2024/01/15 15:09:11;;;;;;;19.50;5.00;;;;;;;2.79;85.27;98010.34;177937;1267;46238;-81
2024/01/15 15:13:15;;;;;;;8.40;4.10;;;;;;;2.75;86.02;98017.45;177068;1263;46017;-81
2024/01/15 15:17:23;;;;;;;8.10;5.20;;;;;;;2.67;86.92;98017.77;177214;1265;46018;-82
2024/01/15 15:21:28;;;;;;;8.00;4.60;;;;;;;2.63;87.96;98026.03;176919;1265;59772;-82
2024/01/15 15:25:31;;;;;;;9.60;4.10;;;;;;;2.60;88.90;98029.59;177918;1265;46066;-81
2024/01/15 15:29:35;;;;;;;9.50;5.00;;;;;;;2.52;92.06;98039.33;177475;1265;46253;-81
2024/01/15 15:33:38;;;;;;;16.30;3.90;;;;;;;2.48;91.91;98038.14;177407;1264;43996;-81
2024/01/15 15:37:41;;;;;;;6.70;4.40;;;;;;;2.44;92.14;98054.35;177325;1264;46027;-81
2024/01/15 15:41:45;;;;;;;9.40;4.80;;;;;;;2.44;92.67;98059.27;178124;1265;58362;-82
2024/01/15 15:45:48;;;;;;;7.00;5.00;;;;;;;2.44;92.31;98068.39;178475;1263;44071;-81
2024/01/15 15:49:51;;;;;;;8.60;4.20;;;;;;;2.45;92.41;98076.18;178007;1265;46133;-82
2024/01/15 15:53:54;;;;;;;25.20;5.80;;;;;;;2.47;92.63;98073.54;177406;1267;46157;-82
2024/01/15 15:57:58;;;;;;;9.40;4.80;;;;;;;2.49;92.34;98074.59;177282;1265;46018;-81
2024/01/15 16:02:02;;;;;;;7.00;4.70;;;;;;;2.52;92.09;98087.97;178139;1267;57912;-81
2024/01/15 16:06:05;;;;;;;9.40;5.10;;;;;;;2.53;91.43;98090.00;177620;1264;46056;-80
2024/01/15 16:10:09;;;;;;;11.40;4.60;;;;;;;2.53;91.31;98095.07;177531;1265;46136;-82
2024/01/15 16:14:13;;;;;;;9.60;6.10;;;;;;;2.55;91.40;98107.01;177989;1264;46078;-83
2024/01/15 16:18:16;;;;;;;7.70;4.80;;;;;;;2.49;90.06;98104.36;178171;1265;46153;-82
2024/01/15 16:22:39;;;;;;;6.00;4.20;;;;;;;2.52;90.56;98099.69;178828;1264;58271;-80
2024/01/15 16:27:02;;;;;;;9.90;5.30;;;;;;;2.56;89.85;98111.98;177917;1265;47085;-81
2024/01/15 16:31:06;;;;;;;10.20;4.80;;;;;;;2.59;90.53;98125.05;177982;1265;44494;-80
2024/01/15 16:35:11;;;;;;;7.20;5.00;;;;;;;2.52;90.34;98121.21;177983;1264;46139;-81
2024/01/15 16:39:14;;;;;;;8.80;5.00;;;;;;;2.45;90.29;98120.60;177997;1267;45729;-81
2024/01/15 16:43:17;;;;;;;11.80;4.90;;;;;;;2.39;90.65;98140.48;177377;1265;59641;-81
2024/01/15 16:47:21;;;;;;;14.60;6.10;;;;;;;2.39;91.48;98144.20;178999;1264;43962;-80
2024/01/15 16:51:24;;;;;;;5.60;3.60;;;;;;;2.35;92.20;98156.39;179242;1265;46021;-81
2024/01/15 16:55:27;;;;;;;6.40;4.50;;;;;;;2.35;94.71;98159.19;177922;1263;46103;-81
2024/01/15 16:59:31;;;;;;;12.20;5.60;;;;;;;2.32;95.49;98158.79;178999;1267;44841;-80
2024/01/15 17:03:34;;;;;;;8.00;4.60;;;;;;;2.26;95.12;98160.10;178155;1263;57736;-81
2024/01/15 17:07:37;;;;;;;8.30;5.40;;;;;;;2.26;94.85;98157.83;178492;1264;46594;-81
2024/01/15 17:11:40;;;;;;;8.90;4.90;;;;;;;2.27;94.73;98156.73;177149;1267;46124;-81
2024/01/15 17:15:44;;;;;;;11.90;5.90;;;;;;;2.31;95.28;98168.44;176992;1265;192642;-81
2024/01/15 17:19:48;;;;;;;7.20;4.90;;;;;;;2.29;96.05;98167.36;177883;1267;46064;-80
2024/01/15 17:23:52;;;;;;;7.30;4.90;;;;;;;2.28;96.37;98180.19;178714;1267;60179;-81
2024/01/15 17:27:55;;;;;;;13.70;6.50;;;;;;;2.24;96.55;98180.00;178138;1265;44129;-81
2024/01/15 17:31:58;;;;;;;9.30;4.60;;;;;;;2.18;99.09;98179.77;176730;1267;45951;-80
2024/01/15 17:36:02;;;;;;;7.30;6.30;;;;;;;2.12;100.00;98186.23;178037;1264;46565;-81
2024/01/15 17:40:06;;;;;;;8.40;6.40;;;;;;;2.07;100.00;98193.96;178164;1263;45994;-81
2024/01/15 17:44:09;;;;;;;14.20;6.30;;;;;;;2.06;100.00;98200.86;178281;1265;57274;-81
2024/01/15 17:48:13;;;;;;;11.30;3.90;;;;;;;1.99;100.00;98198.76;177787;1265;46059;-80
2024/01/15 17:52:17;;;;;;;8.50;4.50;;;;;;;1.96;100.00;98192.90;178763;1264;46046;-81
2024/01/15 17:56:20;;;;;;;7.10;4.60;;;;;;;1.91;100.00;98193.30;178217;1263;44753;-81
2024/01/15 18:00:23;;;;;;;10.20;6.40;;;;;;;1.91;100.00;98207.34;178518;1263;46062;-81
2024/01/15 18:04:26;;;;;;;8.60;5.70;;;;;;;1.90;100.00;98205.28;178502;1263;59520;-81
2024/01/15 18:08:29;;;;;;;15.70;6.20;;;;;;;1.88;100.00;98210.36;178147;1264;46100;-81
2024/01/15 18:12:33;;;;;;;23.20;6.90;;;;;;;1.81;100.00;98217.15;178690;1265;46091;-82
2024/01/15 18:16:41;;;;;;;9.20;5.60;;;;;;;1.80;100.00;98219.31;178975;1265;46082;-84
2024/01/15 18:20:46;;;;;;;15.50;6.60;;;;;;;1.79;100.00;98220.63;177923;1267;46136;-81
2024/01/15 18:24:49;;;;;;;10.70;6.10;;;;;;;1.80;100.00;98225.82;176998;1265;58591;-82
2024/01/15 18:28:52;;;;;;;13.20;6.80;;;;;;;1.79;100.00;98222.90;178024;1265;46231;-82
2024/01/15 18:32:55;;;;;;;8.00;6.00;;;;;;;1.78;100.00;98226.83;178464;1264;45893;-81
2024/01/15 18:36:59;;;;;;;13.00;5.60;;;;;;;1.77;100.00;98231.83;178049;1264;44683;-82
2024/01/15 18:41:03;;;;;;;8.30;6.10;;;;;;;1.72;100.00;98231.33;178496;1263;46193;-83
2024/01/15 18:45:07;;;;;;;7.30;4.90;;;;;;;1.66;100.00;98238.27;178119;1264;58095;-82
2024/01/15 18:49:11;;;;;;;7.60;5.70;;;;;;;1.68;100.00;98247.39;178265;1265;46526;-81
2024/01/15 18:53:15;;;;;;;14.70;7.20;;;;;;;1.72;100.00;98248.43;179235;1267;45935;-82
2024/01/15 18:57:18;;;;;;;10.00;6.70;;;;;;;1.78;100.00;98247.11;179316;1264;44241;-82
2024/01/15 19:01:32;;;;;;;9.50;5.40;;;;;;;1.85;100.00;98256.50;178827;1266;46554;-82